Ludlow, Pennsylvania
Current Conditions -  °F | °C
As of 6:53 AM on Tuesday 27 Jan 2015 (Local Time) from KBFD Reporting Station
Light Snow Light Snow  
Wind Chill: 13°   Ceiling: 3700
Heat Index: 13°   Visibility: 1.5mi
Dew Point:   Wind: 3mph
Humidity: 77%   Direction: 10°N
Pressure: 29.78"   Gusts: NA
Location:  41.73°N, 78.94°W
Report Text: KBFD 271153Z AUTO 01003KT 1 1/2SM -SN FEW030 OVC037 M11/M14 A2978 RMK AO2 SLP118 P0001 60001 70013 I6000 T11061139 11100 21122 53012
Loading
Personal Weather Stations






























Interactive Weather Map New forecast layout! Learn more

10-Day Weather Forecast

Advertisements
Track Severe Weather on mobile